Time;durP1;ratioP1;P1;durP2;ratioP2;P2;SDS_P1;SDS_P2;PMS_P1;PMS_P2;Temp;Humidity;BMP_temperature;BMP_pressure;BME280_temperature;BME280_humidity;BME280_pressure;Samples;Min_cycle;Max_cycle;Signal;HPM_P1;HPM_P2
2021/11/15 00:00:25;;;;;;;15.77;10.52;;;7.80;99.90;;;;;;5044829;28;20212;-69
2021/11/15 00:02:52;;;;;;;16.92;10.55;;;7.70;99.90;;;;;;5045371;28;20587;-70
2021/11/15 00:05:19;;;;;;;16.70;11.75;;;7.70;99.90;;;;;;5044526;28;20236;-69
2021/11/15 00:07:45;;;;;;;18.48;12.48;;;7.70;99.90;;;;;;5044701;28;20267;-69
2021/11/15 00:10:16;;;;;;;14.98;11.25;;;7.80;99.90;;;;;;5044442;28;20212;-70
2021/11/15 00:12:43;;;;;;;15.93;11.10;;;7.80;99.90;;;;;;5045417;28;20215;-70
2021/11/15 00:15:10;;;;;;;17.90;11.63;;;7.80;99.90;;;;;;5045064;28;20197;-69
2021/11/15 00:17:37;;;;;;;14.35;10.40;;;7.80;99.90;;;;;;5044328;28;20244;-70
2021/11/15 00:20:06;;;;;;;19.48;11.50;;;7.80;99.90;;;;;;5044800;28;20201;-69
2021/11/15 00:22:33;;;;;;;17.50;11.05;;;7.80;99.90;;;;;;5045013;28;20205;-69
2021/11/15 00:24:59;;;;;;;17.17;12.30;;;7.80;99.90;;;;;;5044902;28;20232;-69
2021/11/15 00:27:28;;;;;;;14.55;10.13;;;7.80;99.90;;;;;;5043800;28;20229;-69
2021/11/15 00:29:57;;;;;;;19.88;11.20;;;7.80;99.90;;;;;;5048694;28;20208;-70
2021/11/15 00:32:24;;;;;;;15.50;10.55;;;7.80;99.90;;;;;;5048955;28;20556;-70
2021/11/15 00:34:50;;;;;;;18.52;12.70;;;7.80;99.90;;;;;;5048856;28;20221;-69
2021/11/15 00:37:18;;;;;;;15.40;11.63;;;7.80;99.90;;;;;;5047692;28;20225;-69
2021/11/15 00:39:45;;;;;;;15.48;10.88;;;7.70;99.90;;;;;;5048850;28;20237;-69
2021/11/15 00:42:12;;;;;;;19.73;11.90;;;7.70;99.90;;;;;;5048481;28;20208;-70
2021/11/15 00:44:40;;;;;;;16.55;10.13;;;7.70;99.90;;;;;;5049299;28;21063;-69
2021/11/15 00:47:08;;;;;;;15.60;10.38;;;7.70;99.90;;;;;;5048352;28;20786;-69
2021/11/15 00:49:35;;;;;;;16.38;10.45;;;7.70;99.90;;;;;;5048186;28;20220;-70
2021/11/15 00:52:02;;;;;;;14.00;10.75;;;7.70;99.90;;;;;;5049661;28;20208;-70
2021/11/15 00:54:29;;;;;;;17.73;10.07;;;7.70;99.90;;;;;;5048816;28;20208;-70
2021/11/15 00:56:56;;;;;;;16.50;10.40;;;7.70;99.90;;;;;;5047730;28;20221;-68
2021/11/15 00:59:22;;;;;;;17.65;11.27;;;7.60;99.90;;;;;;5048684;28;20209;-70
2021/11/15 01:01:51;;;;;;;19.23;11.82;;;7.70;99.90;;;;;;5047919;28;20200;-70
2021/11/15 01:04:17;;;;;;;19.85;12.13;;;7.60;99.90;;;;;;5046761;28;20325;-70
2021/11/15 01:06:44;;;;;;;17.73;11.35;;;7.60;99.90;;;;;;5050057;28;20224;-70
2021/11/15 01:11:39;;;;;;;18.30;10.98;;;7.60;99.90;;;;;;5039567;28;20214;-68
2021/11/15 01:14:05;;;;;;;16.05;9.80;;;7.60;99.90;;;;;;5033181;28;20224;-68
2021/11/15 01:16:32;;;;;;;14.50;10.13;;;7.60;99.90;;;;;;5032648;28;20232;-68
2021/11/15 01:19:00;;;;;;;16.00;10.20;;;7.60;99.90;;;;;;5032824;28;20198;-68
2021/11/15 01:21:28;;;;;;;15.60;10.23;;;7.60;99.90;;;;;;5033286;28;20342;-69
2021/11/15 01:23:55;;;;;;;16.17;11.05;;;7.60;99.90;;;;;;5033004;28;20275;-68
2021/11/15 01:26:22;;;;;;;13.45;9.88;;;7.60;99.90;;;;;;5032484;28;20222;-68
2021/11/15 01:28:49;;;;;;;15.68;10.98;;;7.50;99.90;;;;;;5033245;28;20205;-68
2021/11/15 01:31:17;;;;;;;19.05;9.52;;;7.50;99.90;;;;;;5033130;28;20198;-67
2021/11/15 01:33:44;;;;;;;12.98;10.05;;;7.50;99.90;;;;;;5032961;28;20198;-68
2021/11/15 01:36:12;;;;;;;16.30;10.98;;;7.40;99.90;;;;;;5032407;28;20233;-68
2021/11/15 01:38:39;;;;;;;16.27;11.23;;;7.40;99.90;;;;;;5032950;28;20213;-68
2021/11/15 01:41:07;;;;;;;14.88;9.85;;;7.40;99.90;;;;;;5030406;28;20209;-68
2021/11/15 01:43:34;;;;;;;15.13;9.98;;;7.40;99.90;;;;;;5032801;28;20268;-68
2021/11/15 01:46:01;;;;;;;15.15;9.98;;;7.40;99.90;;;;;;5031806;28;20280;-68
2021/11/15 01:48:28;;;;;;;18.05;10.57;;;7.40;99.90;;;;;;5032513;28;20209;-68
2021/11/15 01:50:56;;;;;;;18.60;9.13;;;7.50;99.90;;;;;;5032487;28;20202;-68
2021/11/15 01:53:24;;;;;;;14.07;9.68;;;7.50;99.90;;;;;;5032140;28;20205;-67
2021/11/15 01:55:50;;;;;;;17.27;10.25;;;7.50;99.90;;;;;;5031604;28;20202;-68
2021/11/15 01:58:18;;;;;;;16.08;9.70;;;7.50;99.90;;;;;;5032375;28;20206;-67
2021/11/15 02:00:47;;;;;;;16.63;10.40;;;7.50;99.90;;;;;;5032202;28;20597;-67
2021/11/15 02:03:15;;;;;;;12.35;9.38;;;7.40;99.90;;;;;;5031851;28;20197;-67
2021/11/15 02:05:43;;;;;;;14.15;9.15;;;7.40;99.90;;;;;;5031840;28;20226;-67
2021/11/15 02:08:10;;;;;;;14.80;8.88;;;7.40;99.90;;;;;;5031885;28;20732;-67
2021/11/15 02:10:39;;;;;;;12.70;8.88;;;7.40;99.90;;;;;;5031631;28;20210;-68
2021/11/15 02:13:06;;;;;;;16.30;9.07;;;7.40;99.90;;;;;;5031813;28;20202;-68
2021/11/15 02:15:33;;;;;;;13.52;9.20;;;7.40;99.90;;;;;;5031652;28;20198;-68
2021/11/15 02:18:01;;;;;;;16.80;9.70;;;7.40;99.90;;;;;;5031289;28;20225;-67
2021/11/15 02:20:43;;;;;;;13.63;9.10;;;7.40;99.90;;;;;;5031828;28;20209;-68
2021/11/15 02:23:10;;;;;;;13.15;8.38;;;7.40;99.90;;;;;;5032077;28;20205;-67
2021/11/15 02:25:37;;;;;;;15.30;8.80;;;7.40;99.90;;;;;;5031709;28;20233;-67
2021/11/15 02:28:03;;;;;;;10.75;8.10;;;7.40;99.90;;;;;;5030926;28;20226;-68
2021/11/15 02:30:30;;;;;;;14.75;9.30;;;7.30;99.90;;;;;;5031690;28;20209;-68
2021/11/15 02:32:57;;;;;;;12.20;8.23;;;7.30;99.90;;;;;;5031354;28;20240;-67
2021/11/15 02:35:26;;;;;;;11.60;8.55;;;7.40;99.90;;;;;;5031851;28;20581;-67
2021/11/15 02:37:54;;;;;;;11.05;7.97;;;7.40;99.90;;;;;;5031182;28;20653;-67
2021/11/15 02:40:25;;;;;;;14.32;7.93;;;7.30;99.90;;;;;;5032017;28;20206;-67
2021/11/15 02:42:52;;;;;;;11.60;7.50;;;7.30;99.90;;;;;;5031618;28;20217;-68
2021/11/15 02:45:20;;;;;;;13.52;8.38;;;7.30;99.90;;;;;;5031406;28;20229;-68
2021/11/15 02:47:46;;;;;;;13.18;7.95;;;7.30;99.90;;;;;;5031057;28;20218;-68
2021/11/15 02:50:17;;;;;;;10.63;7.53;;;7.20;99.90;;;;;;5031465;28;20213;-67
2021/11/15 02:52:44;;;;;;;10.63;7.32;;;7.10;99.90;;;;;;5031396;28;20684;-67
2021/11/15 02:55:13;;;;;;;8.77;6.85;;;7.10;99.90;;;;;;5031286;28;20205;-68
2021/11/15 02:57:39;;;;;;;9.05;6.10;;;7.10;99.90;;;;;;5030943;28;20583;-68
2021/11/15 03:00:18;;;;;;;9.73;6.68;;;7.20;99.90;;;;;;5031280;28;20210;-68
2021/11/15 03:02:45;;;;;;;8.98;6.82;;;7.10;99.90;;;;;;5031181;28;20212;-68
2021/11/15 03:05:12;;;;;;;10.88;6.93;;;7.20;99.90;;;;;;5030893;28;20225;-68
2021/11/15 03:07:38;;;;;;;11.32;6.63;;;7.10;99.90;;;;;;5030427;28;20228;-68
2021/11/15 03:10:06;;;;;;;9.00;6.78;;;7.10;99.90;;;;;;5030825;28;20225;-67
2021/11/15 03:12:35;;;;;;;9.18;6.07;;;7.10;99.90;;;;;;5031146;28;20209;-68
2021/11/15 03:15:01;;;;;;;9.00;6.90;;;7.10;99.90;;;;;;5030776;28;20228;-68
2021/11/15 03:17:28;;;;;;;7.88;6.20;;;7.10;99.90;;;;;;5030524;28;20230;-68
2021/11/15 03:19:55;;;;;;;8.82;6.60;;;7.10;99.90;;;;;;5030510;28;20692;-67
2021/11/15 03:22:22;;;;;;;8.77;6.57;;;7.10;99.90;;;;;;5031072;28;20202;-68
2021/11/15 03:24:49;;;;;;;8.75;5.93;;;7.10;99.90;;;;;;5030305;28;20217;-67
2021/11/15 03:27:16;;;;;;;10.13;6.90;;;7.10;99.90;;;;;;5030610;28;20232;-67
2021/11/15 03:29:44;;;;;;;8.68;6.45;;;7.10;99.90;;;;;;5030785;28;20309;-67
2021/11/15 03:32:13;;;;;;;12.20;7.63;;;7.10;99.90;;;;;;5030901;28;20208;-68
2021/11/15 03:34:40;;;;;;;9.52;6.80;;;7.00;99.90;;;;;;5030900;28;20201;-68
2021/11/15 03:37:08;;;;;;;9.95;7.65;;;7.00;99.90;;;;;;5030014;28;20226;-66
2021/11/15 03:39:35;;;;;;;11.13;7.10;;;7.00;99.90;;;;;;5030860;28;20213;-67
2021/11/15 03:42:02;;;;;;;10.88;8.23;;;7.00;99.90;;;;;;5030525;28;20205;-68
2021/11/15 03:44:28;;;;;;;10.40;7.57;;;7.00;99.90;;;;;;5030650;28;20224;-67
2021/11/15 03:46:56;;;;;;;11.02;7.32;;;7.00;99.90;;;;;;5029964;28;20233;-68
2021/11/15 03:49:23;;;;;;;9.45;7.43;;;6.90;99.90;;;;;;5030946;28;20276;-68
2021/11/15 03:51:50;;;;;;;11.88;8.05;;;7.00;99.90;;;;;;5030694;28;20564;-68
2021/11/15 03:54:17;;;;;;;11.57;8.25;;;6.90;99.90;;;;;;5030482;28;20210;-68
2021/11/15 03:56:44;;;;;;;11.40;8.30;;;6.90;99.90;;;;;;5029971;28;20225;-68
2021/11/15 03:59:11;;;;;;;11.00;7.75;;;6.90;99.90;;;;;;5030551;28;20197;-68
2021/11/15 04:01:39;;;;;;;12.00;7.55;;;6.90;99.90;;;;;;5030825;28;20555;-68
2021/11/15 04:04:08;;;;;;;16.55;6.90;;;6.90;99.90;;;;;;5032904;28;20550;-67
2021/11/15 04:06:39;;;;;;;12.70;7.60;;;6.90;99.90;;;;;;5034234;28;20229;-67
2021/11/15 04:09:09;;;;;;;13.02;9.55;;;7.00;99.90;;;;;;5034944;28;20201;-68
2021/11/15 04:11:37;;;;;;;12.27;7.50;;;7.00;99.90;;;;;;5034647;28;20209;-67
2021/11/15 04:14:06;;;;;;;12.10;8.35;;;7.00;99.90;;;;;;5034848;28;20259;-67
2021/11/15 04:16:34;;;;;;;10.23;7.30;;;7.00;99.90;;;;;;5033952;28;20213;-68
2021/11/15 04:19:04;;;;;;;12.45;7.45;;;6.90;99.90;;;;;;5034411;28;20212;-67
2021/11/15 04:21:34;;;;;;;9.80;7.70;;;7.00;99.90;;;;;;5034313;28;20304;-68
2021/11/15 04:24:01;;;;;;;11.95;8.02;;;7.00;99.90;;;;;;5034351;28;20304;-67
2021/11/15 04:26:28;;;;;;;11.38;7.78;;;7.00;99.90;;;;;;5033605;28;20708;-67
2021/11/15 04:28:55;;;;;;;9.60;7.60;;;7.00;99.90;;;;;;5034035;28;20213;-68
2021/11/15 04:31:22;;;;;;;12.50;7.95;;;7.00;99.90;;;;;;5034325;28;20202;-67
2021/11/15 04:33:49;;;;;;;12.02;8.10;;;7.00;99.90;;;;;;5033852;28;20564;-67
2021/11/15 04:36:16;;;;;;;11.50;8.05;;;6.90;99.90;;;;;;5024546;28;20579;-67
2021/11/15 04:38:44;;;;;;;10.00;7.53;;;6.90;99.90;;;;;;5022935;28;20194;-68
2021/11/15 04:41:11;;;;;;;11.25;8.07;;;6.90;99.90;;;;;;5023680;28;20198;-67
2021/11/15 04:43:37;;;;;;;13.50;7.85;;;6.90;99.90;;;;;;5021982;28;20206;-68
2021/11/15 04:46:05;;;;;;;10.40;7.35;;;6.90;99.90;;;;;;5021866;28;20221;-68
2021/11/15 04:48:32;;;;;;;13.50;8.75;;;6.90;99.90;;;;;;5023830;28;20683;-68
2021/11/15 04:50:59;;;;;;;10.98;8.00;;;6.90;99.90;;;;;;5021497;28;20199;-68
2021/11/15 04:53:25;;;;;;;11.57;7.43;;;6.90;99.90;;;;;;5022560;28;20193;-67
2021/11/15 04:55:54;;;;;;;10.75;7.40;;;6.90;99.90;;;;;;5022580;28;20194;-68
2021/11/15 04:58:20;;;;;;;15.98;8.77;;;6.90;99.90;;;;;;5027829;28;20200;-67
2021/11/15 05:00:47;;;;;;;12.57;8.60;;;6.90;99.90;;;;;;5033035;28;20224;-67
2021/11/15 05:03:17;;;;;;;10.43;8.70;;;6.90;99.90;;;;;;5032723;28;20640;-67
2021/11/15 05:05:43;;;;;;;12.18;9.20;;;6.90;99.90;;;;;;5021655;28;20245;-67
2021/11/15 05:08:10;;;;;;;14.10;9.43;;;7.00;99.90;;;;;;5021353;28;20221;-67
2021/11/15 05:10:37;;;;;;;11.68;8.00;;;7.00;99.90;;;;;;5021291;28;20210;-67
2021/11/15 05:13:06;;;;;;;13.15;8.27;;;6.90;99.90;;;;;;5019483;28;20203;-68
2021/11/15 05:15:32;;;;;;;12.95;9.32;;;6.90;99.90;;;;;;5023036;28;20198;-66
2021/11/15 05:18:00;;;;;;;10.40;7.40;;;6.90;99.90;;;;;;5020750;28;20214;-68
2021/11/15 05:20:27;;;;;;;12.82;8.65;;;6.90;99.90;;;;;;5021911;28;20201;-67
2021/11/15 05:22:53;;;;;;;16.27;9.63;;;6.90;99.90;;;;;;5022900;28;20201;-68
2021/11/15 05:25:21;;;;;;;15.57;8.63;;;6.90;99.90;;;;;;5021335;28;20240;-68
2021/11/15 05:27:48;;;;;;;11.70;7.85;;;6.90;99.90;;;;;;5026169;28;20222;-67
2021/11/15 05:30:18;;;;;;;10.90;8.18;;;6.90;99.90;;;;;;5027149;28;20194;-67
2021/11/15 05:32:46;;;;;;;16.23;8.93;;;6.90;99.90;;;;;;5013046;28;20584;-67
2021/11/15 05:35:13;;;;;;;11.85;8.18;;;6.80;99.90;;;;;;5013651;28;20575;-67
2021/11/15 05:37:40;;;;;;;15.32;8.35;;;6.80;99.90;;;;;;5012619;28;20245;-67
2021/11/15 05:40:08;;;;;;;12.63;8.65;;;6.90;99.90;;;;;;5013247;28;20685;-67
2021/11/15 05:42:35;;;;;;;10.60;7.68;;;6.80;99.90;;;;;;5013157;28;20337;-67
2021/11/15 05:45:03;;;;;;;17.20;9.48;;;6.90;99.90;;;;;;5013114;28;20233;-67
2021/11/15 05:47:32;;;;;;;11.88;9.68;;;6.90;99.90;;;;;;5012638;28;20713;-67
2021/11/15 05:49:59;;;;;;;12.52;7.70;;;6.80;99.90;;;;;;5014345;28;20689;-67
2021/11/15 05:52:26;;;;;;;14.23;9.43;;;6.90;99.90;;;;;;5014469;28;20217;-67
2021/11/15 05:54:53;;;;;;;13.38;8.45;;;6.90;99.90;;;;;;5013743;28;20213;-67
2021/11/15 05:57:20;;;;;;;12.15;9.15;;;6.90;99.90;;;;;;5013581;28;20219;-67
2021/11/15 05:59:47;;;;;;;12.90;8.13;;;6.90;99.90;;;;;;5013779;28;20202;-67
2021/11/15 06:02:14;;;;;;;20.27;9.88;;;6.90;99.90;;;;;;5021014;28;20205;-68
2021/11/15 06:04:43;;;;;;;14.23;9.15;;;6.90;99.90;;;;;;5023124;28;20205;-67
2021/11/15 06:07:10;;;;;;;14.77;9.85;;;6.80;99.90;;;;;;5021133;28;20226;-67
2021/11/15 06:09:37;;;;;;;14.90;8.55;;;6.80;99.90;;;;;;5018717;28;20210;-67
2021/11/15 06:12:05;;;;;;;12.25;8.68;;;6.80;99.90;;;;;;5020851;28;20203;-67
2021/11/15 06:14:32;;;;;;;13.60;9.20;;;6.80;99.90;;;;;;5022153;28;20617;-67
2021/11/15 06:16:58;;;;;;;11.43;8.50;;;6.90;99.90;;;;;;5022170;28;20218;-67
2021/11/15 06:19:25;;;;;;;12.43;8.70;;;6.80;99.90;;;;;;5021207;28;20203;-67
2021/11/15 06:21:53;;;;;;;16.48;8.70;;;6.80;99.90;;;;;;5013510;28;20290;-67
2021/11/15 06:24:20;;;;;;;17.23;9.50;;;6.70;99.90;;;;;;5022050;28;20201;-67
2021/11/15 06:26:47;;;;;;;11.73;8.18;;;6.80;99.90;;;;;;5019361;28;20218;-67
2021/11/15 06:29:14;;;;;;;13.00;8.15;;;6.80;99.90;;;;;;5020276;28;20198;-66
2021/11/15 06:31:40;;;;;;;10.75;9.15;;;6.80;99.90;;;;;;5022501;28;20193;-68
2021/11/15 06:34:07;;;;;;;12.93;8.77;;;6.80;99.90;;;;;;5021637;28;20225;-67
2021/11/15 06:36:34;;;;;;;10.20;7.35;;;6.80;99.90;;;;;;5019157;28;20218;-67
2021/11/15 06:39:02;;;;;;;15.10;8.70;;;6.90;99.90;;;;;;5023020;28;20202;-67
2021/11/15 06:41:29;;;;;;;13.68;8.48;;;6.80;99.90;;;;;;5024545;28;20644;-68
2021/11/15 06:43:56;;;;;;;15.00;8.35;;;6.80;99.90;;;;;;5020119;28;20198;-67
2021/11/15 06:46:23;;;;;;;13.52;8.80;;;6.80;99.90;;;;;;5021377;28;20686;-68
2021/11/15 06:48:50;;;;;;;15.80;10.00;;;6.80;99.90;;;;;;5021531;28;20194;-67
2021/11/15 06:51:17;;;;;;;14.82;8.93;;;6.80;99.90;;;;;;5020513;28;20589;-67
2021/11/15 06:53:45;;;;;;;13.63;8.23;;;6.70;99.90;;;;;;5021489;28;20214;-67
2021/11/15 06:56:13;;;;;;;13.93;9.13;;;6.70;99.90;;;;;;5021142;28;20272;-67
2021/11/15 06:58:40;;;;;;;11.65;8.52;;;6.70;99.90;;;;;;5020455;28;20713;-68
2021/11/15 07:01:07;;;;;;;13.85;9.88;;;6.70;99.90;;;;;;5020766;28;20194;-67
2021/11/15 07:03:34;;;;;;;14.82;9.88;;;6.70;99.90;;;;;;5022045;28;20198;-67
2021/11/15 07:06:01;;;;;;;12.75;8.25;;;6.70;99.90;;;;;;5026621;28;20389;-68
2021/11/15 07:08:28;;;;;;;15.10;9.75;;;6.70;99.90;;;;;;5031402;28;20214;-68
2021/11/15 07:10:55;;;;;;;12.48;8.80;;;6.70;99.90;;;;;;5074814;22;20213;-94
2021/11/15 07:13:24;;;;;;;12.00;7.97;;;6.80;99.90;;;;;;5076996;28;20225;-93
2021/11/15 07:15:51;;;;;;;15.57;11.30;;;6.80;99.90;;;;;;5077172;28;20196;-94
2021/11/15 07:18:18;;;;;;;12.32;9.10;;;6.80;99.90;;;;;;5078268;28;20224;-94
2021/11/15 07:20:46;;;;;;;12.32;8.43;;;6.80;99.90;;;;;;5066705;28;20312;-94
2021/11/15 07:23:13;;;;;;;12.68;8.70;;;6.80;99.90;;;;;;5061228;28;20236;-93
2021/11/15 07:25:40;;;;;;;13.95;9.05;;;6.80;99.90;;;;;;5070592;28;20217;-91
2021/11/15 07:28:07;;;;;;;13.38;8.93;;;6.80;99.90;;;;;;5077360;28;20236;-93
2021/11/15 07:30:36;;;;;;;12.85;8.82;;;6.70;99.90;;;;;;5064929;28;20214;-95
2021/11/15 07:33:03;;;;;;;13.15;9.68;;;6.80;99.90;;;;;;5057214;28;20205;-93
2021/11/15 07:35:30;;;;;;;13.02;8.30;;;6.80;99.90;;;;;;5056744;28;20225;-94
2021/11/15 07:37:57;;;;;;;13.73;8.85;;;6.80;99.90;;;;;;5055611;28;20217;-94
2021/11/15 07:40:24;;;;;;;12.85;8.57;;;6.80;99.90;;;;;;5055655;28;20229;-94
2021/11/15 07:42:51;;;;;;;13.93;8.75;;;6.80;99.90;;;;;;5056842;28;20253;-94
2021/11/15 07:45:29;;;;;;;12.07;9.00;;;6.80;99.90;;;;;;5058018;28;20249;-93
2021/11/15 07:47:57;;;;;;;13.85;9.70;;;6.80;99.90;;;;;;5056508;28;20198;-94
2021/11/15 07:50:24;;;;;;;11.95;8.48;;;6.80;99.90;;;;;;5056193;28;20256;-94
2021/11/15 07:52:51;;;;;;;20.05;9.20;;;6.80;99.90;;;;;;5057053;28;20233;-93
2021/11/15 07:55:18;;;;;;;14.10;8.73;;;6.80;99.90;;;;;;5056539;28;20189;-95
2021/11/15 07:57:46;;;;;;;12.30;8.90;;;6.90;99.90;;;;;;5056370;28;20205;-95
2021/11/15 08:00:16;;;;;;;18.02;9.90;;;6.80;99.90;;;;;;5056767;28;20205;-94
2021/11/15 08:02:44;;;;;;;15.32;9.02;;;6.80;99.90;;;;;;5056796;28;20220;-93
2021/11/15 08:05:15;;;;;;;12.43;9.18;;;6.90;99.90;;;;;;5055951;28;20264;-94
2021/11/15 08:07:42;;;;;;;14.75;9.00;;;6.90;99.90;;;;;;5054804;28;20248;-93
2021/11/15 08:10:11;;;;;;;14.80;9.20;;;6.90;99.90;;;;;;5058457;22;20232;-71
2021/11/15 08:12:40;;;;;;;13.57;8.70;;;6.90;99.90;;;;;;5030256;28;20205;-71
2021/11/15 08:15:09;;;;;;;14.30;9.85;;;7.00;99.90;;;;;;5030646;28;20206;-71
2021/11/15 08:17:37;;;;;;;13.88;9.48;;;6.90;99.90;;;;;;5030172;28;20240;-71
2021/11/15 08:20:05;;;;;;;13.45;9.90;;;6.90;99.90;;;;;;5030630;28;20202;-71
2021/11/15 08:22:33;;;;;;;14.10;10.25;;;6.90;99.90;;;;;;5030710;28;20581;-71
2021/11/15 08:26:00;;;;;;;16.73;9.15;;;6.90;99.90;;;;;;5029513;28;20206;-71
2021/11/15 08:28:29;;;;;;;14.82;9.23;;;6.90;99.90;;;;;;5030409;28;20205;-71
2021/11/15 08:30:57;;;;;;;14.90;9.40;;;7.00;99.90;;;;;;5030096;28;20217;-71
2021/11/15 08:33:25;;;;;;;13.88;9.45;;;6.90;99.90;;;;;;5025826;28;20212;-70
2021/11/15 08:35:53;;;;;;;14.77;10.80;;;7.00;99.90;;;;;;5026944;28;20202;-71
2021/11/15 08:38:51;;;;;;;12.88;8.95;;;7.00;99.90;;;;;;5029529;28;20215;-70
2021/11/15 08:41:22;;;;;;;13.20;8.65;;;7.00;99.90;;;;;;5028858;28;20268;-71
2021/11/15 08:43:49;;;;;;;16.80;10.07;;;7.00;99.90;;;;;;5028894;28;20288;-71
2021/11/15 08:46:18;;;;;;;15.77;9.30;;;7.00;99.90;;;;;;5028220;28;20325;-71
2021/11/15 08:48:48;;;;;;;13.90;9.13;;;7.00;99.90;;;;;;5028893;28;20198;-71
2021/11/15 08:51:17;;;;;;;12.15;8.48;;;7.00;99.90;;;;;;5029574;28;20216;-71
2021/11/15 08:53:44;;;;;;;12.35;8.80;;;7.10;99.90;;;;;;5033238;28;20228;-70
2021/11/15 08:56:12;;;;;;;14.00;9.15;;;7.10;99.90;;;;;;5033244;28;21504;-71
2021/11/15 08:58:40;;;;;;;13.07;8.70;;;7.10;99.90;;;;;;5033920;28;20669;-71
2021/11/15 09:01:08;;;;;;;13.35;9.30;;;7.10;99.90;;;;;;5033681;28;20202;-73
2021/11/15 09:03:39;;;;;;;12.25;8.70;;;7.20;99.90;;;;;;5033450;28;20301;-71
2021/11/15 09:06:06;;;;;;;12.98;9.05;;;7.20;99.90;;;;;;5033255;28;20218;-72
2021/11/15 09:08:38;;;;;;;15.52;11.20;;;7.20;99.90;;;;;;5033909;28;20202;-72
2021/11/15 09:11:06;;;;;;;16.13;11.23;;;7.20;99.90;;;;;;5032784;28;20754;-72
2021/11/15 09:13:36;;;;;;;12.43;9.73;;;7.10;99.90;;;;;;5034043;28;20201;-72
2021/11/15 09:16:03;;;;;;;17.17;11.38;;;7.20;99.90;;;;;;5033541;28;20653;-72
2021/11/15 09:18:33;;;;;;;17.30;12.45;;;7.10;99.90;;;;;;5033163;28;20217;-72
2021/11/15 09:21:00;;;;;;;18.10;13.23;;;7.00;99.90;;;;;;5033791;28;20202;-72
2021/11/15 09:23:28;;;;;;;21.85;13.07;;;7.00;99.90;;;;;;5033278;28;20209;-72
2021/11/15 09:25:54;;;;;;;18.27;12.80;;;6.90;99.90;;;;;;5032052;28;20206;-72
2021/11/15 09:28:22;;;;;;;19.40;12.35;;;6.90;99.90;;;;;;5033786;28;20201;-72
2021/11/15 09:30:50;;;;;;;17.98;12.07;;;6.80;99.90;;;;;;5033053;28;20208;-72
2021/11/15 09:33:17;;;;;;;19.35;12.02;;;6.80;99.90;;;;;;5032796;28;20206;-72
2021/11/15 09:35:48;;;;;;;16.45;12.10;;;6.90;99.90;;;;;;5031876;28;20213;-72
2021/11/15 09:38:17;;;;;;;18.63;12.20;;;6.80;99.90;;;;;;5032724;28;20218;-72
2021/11/15 09:40:44;;;;;;;17.60;12.80;;;6.90;99.90;;;;;;5031658;28;20209;-72
2021/11/15 09:43:11;;;;;;;18.17;13.20;;;6.90;99.90;;;;;;5032761;28;20213;-72
2021/11/15 09:45:38;;;;;;;19.55;13.77;;;6.90;99.90;;;;;;5032281;28;20208;-72
2021/11/15 09:48:09;;;;;;;18.30;12.80;;;7.00;99.90;;;;;;5032320;28;20230;-72
2021/11/15 09:50:37;;;;;;;18.88;12.32;;;7.00;99.90;;;;;;5032427;28;20847;-72
2021/11/15 09:53:04;;;;;;;21.60;12.80;;;7.00;99.90;;;;;;5032319;28;20229;-72
2021/11/15 09:55:32;;;;;;;19.23;11.20;;;7.10;99.90;;;;;;5032585;28;20681;-71
2021/11/15 09:57:59;;;;;;;16.20;11.70;;;7.10;99.90;;;;;;5031604;28;20229;-70
2021/11/15 10:00:27;;;;;;;15.55;11.35;;;7.10;99.90;;;;;;5031487;28;20206;-69
2021/11/15 10:02:56;;;;;;;21.20;12.77;;;7.20;99.90;;;;;;5026840;28;20209;-69
2021/11/15 10:05:24;;;;;;;15.73;11.35;;;7.20;99.90;;;;;;5030001;28;20209;-68
2021/11/15 10:07:56;;;;;;;17.50;12.75;;;7.20;99.90;;;;;;5030711;28;20602;-69
2021/11/15 10:10:40;;;;;;;15.75;11.73;;;7.30;99.90;;;;;;5030703;28;20703;-69
2021/11/15 10:13:22;;;;;;;17.75;11.52;;;7.40;99.90;;;;;;5031167;28;20201;-69
2021/11/15 10:16:06;;;;;;;17.95;12.45;;;7.40;99.90;;;;;;5030334;28;20699;-69
2021/11/15 10:18:37;;;;;;;18.85;11.30;;;7.40;99.90;;;;;;5031141;28;20582;-70
2021/11/15 10:21:08;;;;;;;17.33;12.73;;;7.40;99.90;;;;;;5031210;28;20208;-69
2021/11/15 10:23:40;;;;;;;18.20;12.05;;;7.40;99.90;;;;;;5030556;28;20201;-69
2021/11/15 10:26:14;;;;;;;15.43;12.13;;;7.40;99.90;;;;;;5031066;28;20202;-69
2021/11/15 10:28:41;;;;;;;16.67;11.48;;;7.40;99.90;;;;;;5028142;28;20193;-69
2021/11/15 10:31:29;;;;;;;18.55;11.85;;;7.30;99.90;;;;;;5031351;28;20221;-69
2021/11/15 10:33:55;;;;;;;18.85;12.63;;;7.30;99.90;;;;;;5031401;28;20579;-69
2021/11/15 10:36:57;;;;;;;17.10;11.18;;;7.30;99.90;;;;;;5031374;28;20225;-71
2021/11/15 10:39:27;;;;;;;19.35;12.40;;;7.30;99.90;;;;;;5031227;28;20204;-70
2021/11/15 10:42:03;;;;;;;16.05;11.95;;;7.30;99.90;;;;;;5031226;28;20229;-71
2021/11/15 10:44:30;;;;;;;19.20;12.23;;;7.20;99.90;;;;;;5031564;28;20212;-70
2021/11/15 10:46:59;;;;;;;19.48;12.50;;;7.10;99.90;;;;;;5029894;28;20259;-70
2021/11/15 10:49:27;;;;;;;19.23;11.80;;;7.10;99.90;;;;;;5031715;28;20209;-70
2021/11/15 10:52:00;;;;;;;18.67;12.60;;;7.10;99.90;;;;;;5030868;28;20684;-71
2021/11/15 10:57:32;;;;;;;18.90;12.07;;;7.00;99.90;;;;;;5025179;28;20291;-69
2021/11/15 11:00:11;;;;;;;20.65;12.18;;;7.00;99.90;;;;;;5032341;28;20206;-70
2021/11/15 11:02:41;;;;;;;20.58;13.25;;;7.00;99.90;;;;;;5028322;28;20202;-70
2021/11/15 11:05:09;;;;;;;17.10;11.70;;;7.10;99.90;;;;;;5029777;28;20212;-70
2021/11/15 11:07:37;;;;;;;16.48;12.18;;;7.10;99.90;;;;;;5029352;28;20225;-70
2021/11/15 11:10:05;;;;;;;16.85;11.40;;;7.10;99.90;;;;;;5029983;28;20210;-70
2021/11/15 11:12:36;;;;;;;18.58;11.60;;;7.10;99.90;;;;;;5030014;28;20449;-70
2021/11/15 11:15:32;;;;;;;18.88;12.13;;;7.00;99.90;;;;;;5029873;28;20645;-70
2021/11/15 11:18:03;;;;;;;15.15;10.25;;;7.00;99.90;;;;;;5021353;28;20222;-70
2021/11/15 11:20:50;;;;;;;18.88;11.07;;;7.10;99.90;;;;;;5030412;28;20237;-70
2021/11/15 11:23:28;;;;;;;15.07;11.02;;;7.10;99.90;;;;;;5030230;28;20208;-70
2021/11/15 11:25:55;;;;;;;16.88;10.70;;;7.10;99.90;;;;;;5028757;28;20208;-70
2021/11/15 11:28:30;;;;;;;16.25;10.98;;;7.00;99.90;;;;;;5030098;28;20425;-70
2021/11/15 11:30:57;;;;;;;15.27;10.18;;;7.00;99.90;;;;;;5030131;28;20202;-70
2021/11/15 11:33:26;;;;;;;16.75;10.75;;;7.10;99.90;;;;;;5029990;28;20602;-70
2021/11/15 11:35:54;;;;;;;15.65;9.88;;;7.10;99.90;;;;;;5029151;28;20222;-70
2021/11/15 11:38:22;;;;;;;16.40;10.18;;;7.10;99.90;;;;;;5029744;28;20201;-69
2021/11/15 11:40:49;;;;;;;17.92;11.43;;;7.10;99.90;;;;;;5029925;28;20206;-70
2021/11/15 11:43:17;;;;;;;13.50;10.52;;;7.20;99.90;;;;;;5030133;28;20284;-70
2021/11/15 11:45:45;;;;;;;13.75;9.88;;;7.20;99.90;;;;;;5027025;28;20201;-69
2021/11/15 11:48:11;;;;;;;14.77;10.18;;;7.20;99.90;;;;;;5030557;28;20236;-69
2021/11/15 11:50:39;;;;;;;14.52;9.95;;;7.20;99.90;;;;;;5030354;28;20213;-70
2021/11/15 11:53:07;;;;;;;17.73;11.32;;;7.20;99.90;;;;;;5030273;28;20574;-70
2021/11/15 11:55:37;;;;;;;13.73;10.38;;;7.20;99.90;;;;;;5030864;28;20206;-69
2021/11/15 11:58:25;;;;;;;15.65;10.68;;;7.10;99.90;;;;;;5030840;28;20230;-70
2021/11/15 12:00:54;;;;;;;18.67;10.85;;;7.10;99.90;;;;;;5030158;28;20711;-70
2021/11/15 12:03:23;;;;;;;16.70;10.70;;;7.20;99.90;;;;;;5030188;28;20582;-70
2021/11/15 12:05:50;;;;;;;14.05;10.77;;;7.10;99.90;;;;;;5029291;28;20205;-70
2021/11/15 12:08:18;;;;;;;13.73;10.68;;;7.10;99.90;;;;;;5030125;28;20229;-70
2021/11/15 12:10:54;;;;;;;15.75;10.60;;;7.10;99.90;;;;;;5029888;28;20578;-68
2021/11/15 12:13:23;;;;;;;17.73;11.90;;;7.10;99.90;;;;;;5029889;28;20213;-70
2021/11/15 12:15:56;;;;;;;15.50;12.00;;;7.00;99.90;;;;;;5029125;28;20225;-70
2021/11/15 12:18:25;;;;;;;17.33;11.50;;;7.00;99.90;;;;;;5030086;28;20212;-70
2021/11/15 12:21:16;;;;;;;14.90;9.75;;;7.10;99.90;;;;;;5029984;28;20202;-72
2021/11/15 12:24:06;;;;;;;17.63;11.77;;;7.10;99.90;;;;;;5029959;28;20206;-69
2021/11/15 12:26:43;;;;;;;17.02;10.55;;;7.10;99.90;;;;;;5033746;28;20233;-72
2021/11/15 12:29:25;;;;;;;19.95;11.15;;;7.10;99.90;;;;;;5033847;28;20221;-71
2021/11/15 12:31:54;;;;;;;18.30;11.50;;;7.10;99.90;;;;;;5033568;28;20213;-71
2021/11/15 12:34:23;;;;;;;17.40;11.10;;;7.10;99.90;;;;;;5030458;28;20202;-71
2021/11/15 12:36:53;;;;;;;16.15;10.43;;;7.10;99.90;;;;;;5032827;28;20222;-70
2021/11/15 12:39:23;;;;;;;17.50;12.20;;;7.00;99.90;;;;;;5033520;28;20198;-71
2021/11/15 12:41:53;;;;;;;16.98;11.93;;;7.10;99.90;;;;;;5032736;28;20202;-71
2021/11/15 12:44:29;;;;;;;15.18;10.70;;;7.10;99.90;;;;;;5032661;28;20210;-71
2021/11/15 12:47:04;;;;;;;18.60;10.98;;;7.10;99.90;;;;;;5032250;28;20727;-71
2021/11/15 12:49:38;;;;;;;15.43;11.40;;;7.10;99.90;;;;;;5033140;28;20205;-71
2021/11/15 12:52:27;;;;;;;21.17;11.05;;;7.20;99.90;;;;;;5032694;28;20208;-71
2021/11/15 12:54:57;;;;;;;15.55;11.07;;;7.10;99.90;;;;;;5032387;28;20673;-71
2021/11/15 12:57:41;;;;;;;16.92;11.52;;;7.10;99.90;;;;;;5032499;28;20226;-71